YTNK

Details ICAO YTNK (TCA)
Name Tennant Creek
Region Australia
Timezone Australia/Darwin (UTC+9.5)
Plans Departing 12
Arriving 14
Stats Elevation 1,236 ft / 377 m (AMSL)
Location -19.634808° 134.181380°
Runways 3
Magnetic Variation 4.156° E
Sunrise 2018-05-22 21:28:16 UTC / 2018-05-23 06:58:16 Local
Sunset 2018-05-23 08:34:35 UTC / 2018-05-23 18:04:35 Local
Advertisement - Login to hide

Runways

ID Width Length Bearing (true) Bearing (mag) Surface Threshold Offset Overrun Length
07 98 ft / 30 m 6,416 ft / 1,956 m 74.30° 70.14° Asphalt 0 ft / 0 m 0 ft / 0 m
11 59 ft / 18 m 3,456 ft / 1,053 m 119.40° 115.24° Asphalt 0 ft / 0 m 0 ft / 0 m
2 39 ft / 12 m 2,428 ft / 740 m 23.33° 19.17° Asphalt 0 ft / 0 m 0 ft / 0 m
20 39 ft / 12 m 2,428 ft / 740 m 203.33° 199.17° Asphalt 0 ft / 0 m 0 ft / 0 m
25 98 ft / 30 m 6,416 ft / 1,956 m 254.30° 250.14° Asphalt 0 ft / 0 m 0 ft / 0 m
29 59 ft / 18 m 3,456 ft / 1,053 m 299.40° 295.24° Asphalt 0 ft / 0 m 0 ft / 0 m

Map

Weather


0- 5 10 15 20 25 30 35+ Temperature / ° C

Clouds and Precipitation
Forecast for 2018-05-23 06:00 UTC. Updated 44 minutes ago

Ground ~20,000 ft ~40,000 ft Winds

METAR

YTNK 230600Z AUTO 11011KT 9999 // NCD 23/M01 Q1018

TAF

TAF TAF YTNK 230029Z 2302/2314 11018G28KT CAVOK FM230400 11012KT CAVOK

Frequencies

Unicom 126.70 MHz CTAF
Warning: Do not use this data for real-world aviation or navigation. No guarantee of current accuracy is given.